createdAt,value
2023-02-16T00:02:20.219Z,47.70
2023-02-16T00:14:17.886Z,46.70
2023-02-16T00:19:52.811Z,47.00
2023-02-16T00:22:22.129Z,45.80
2023-02-16T00:25:12.323Z,58.42
2023-02-16T00:31:27.590Z,47.83
2023-02-16T00:34:01.315Z,48.55
2023-02-16T00:36:41.932Z,50.85
2023-02-16T00:39:16.297Z,49.22
2023-02-16T00:41:54.370Z,51.05
2023-02-16T00:44:41.411Z,43.80
2023-02-16T00:47:17.561Z,51.17
2023-02-16T00:52:34.307Z,46.35
2023-02-16T00:55:06.670Z,53.83
2023-02-16T00:57:44.294Z,47.05
2023-02-16T01:00:34.573Z,46.78
2023-02-16T01:03:27.787Z,45.50
2023-02-16T01:06:25.281Z,50.13
2023-02-16T01:09:15.959Z,43.65
2023-02-16T01:11:54.393Z,47.08
2023-02-16T01:14:27.553Z,49.15
2023-02-16T01:17:05.325Z,53.35
2023-02-16T01:19:49.155Z,53.22
2023-02-16T01:22:21.941Z,50.78
2023-02-16T01:25:16.136Z,48.92
2023-02-16T01:27:45.352Z,46.40
2023-02-16T01:30:29.710Z,48.83
2023-02-16T01:36:07.519Z,50.42
2023-02-16T01:43:00.828Z,51.40
2023-02-16T01:52:20.946Z,51.50
2023-02-16T01:55:44.190Z,52.57
2023-02-16T01:58:54.834Z,47.00
2023-02-16T02:02:01.255Z,53.03
2023-02-16T02:05:41.364Z,54.55
2023-02-16T02:08:25.583Z,57.23
2023-02-16T02:11:27.472Z,50.72
2023-02-16T02:14:17.611Z,53.30
2023-02-16T02:23:35.262Z,51.35
2023-02-16T02:34:14.746Z,53.25
2023-02-16T02:37:25.275Z,52.22
2023-02-16T02:40:12.534Z,47.50
2023-02-16T02:45:56.092Z,54.22
2023-02-16T02:48:32.399Z,56.90
2023-02-16T02:51:31.623Z,55.33
2023-02-16T02:55:15.555Z,52.45
2023-02-16T02:58:11.093Z,52.67
2023-02-16T03:00:49.886Z,53.88
2023-02-16T03:03:39.417Z,52.10
2023-02-16T03:06:18.041Z,53.38
2023-02-16T03:08:56.352Z,58.17
2023-02-16T03:11:59.130Z,55.42
2023-02-16T03:14:55.219Z,48.83
2023-02-16T03:17:55.558Z,57.08
2023-02-16T03:20:43.621Z,51.10
2023-02-16T03:23:30.240Z,55.17
2023-02-16T03:26:16.296Z,48.10
2023-02-16T03:29:09.658Z,53.05
2023-02-16T03:34:52.373Z,52.45
2023-02-16T03:37:48.427Z,52.67
2023-02-16T03:40:32.341Z,53.70
2023-02-16T03:43:05.067Z,50.05
2023-02-16T03:45:41.170Z,52.70
2023-02-16T03:48:13.584Z,55.05
2023-02-16T03:50:42.755Z,56.05
2023-02-16T03:53:17.062Z,50.83
2023-02-16T03:55:49.454Z,50.78
2023-02-16T03:58:31.270Z,52.17
2023-02-16T04:01:01.321Z,54.78
2023-02-16T04:03:31.425Z,56.90
2023-02-16T04:06:03.574Z,43.85
2023-02-16T04:08:35.745Z,53.47
2023-02-16T04:12:04.048Z,47.97
2023-02-16T04:14:35.543Z,57.53
2023-02-16T04:17:03.965Z,51.30
2023-02-16T04:19:31.074Z,53.80
2023-02-16T04:22:01.578Z,58.05
2023-02-16T04:24:42.459Z,58.33
2023-02-16T04:27:16.516Z,54.47
2023-02-16T04:29:51.429Z,52.17
2023-02-16T04:32:22.072Z,56.87
2023-02-16T04:34:50.176Z,55.13
2023-02-16T04:37:23.258Z,49.63
2023-02-16T04:39:57.079Z,52.72
2023-02-16T04:42:32.871Z,51.28
2023-02-16T04:45:02.469Z,58.13
2023-02-16T04:47:31.837Z,56.83
2023-02-16T04:50:03.316Z,55.90
2023-02-16T04:52:36.944Z,57.17
2023-02-16T04:59:07.311Z,43.95
2023-02-16T05:08:43.890Z,49.40
2023-02-16T05:11:49.370Z,56.92
2023-02-16T05:15:11.287Z,54.50
2023-02-16T05:18:01.003Z,48.15
2023-02-16T05:20:51.938Z,54.22
2023-02-16T05:23:27.807Z,57.22
2023-02-16T05:25:59.703Z,49.20
2023-02-16T05:28:31.309Z,49.40
2023-02-16T05:34:32.268Z,58.65
2023-02-16T05:37:58.397Z,54.80
2023-02-16T05:44:32.034Z,57.90
2023-02-16T05:47:04.680Z,57.38
2023-02-16T05:49:36.735Z,53.55
2023-02-16T05:54:56.457Z,53.33
2023-02-16T06:00:33.671Z,53.78
2023-02-16T06:03:25.779Z,56.50
2023-02-16T06:06:03.516Z,62.10
2023-02-16T06:08:35.143Z,61.67
2023-02-16T06:13:47.955Z,57.35
2023-02-16T06:16:29.376Z,67.38
2023-02-16T06:19:11.302Z,61.63
2023-02-16T06:21:44.856Z,52.75
2023-02-16T06:24:17.319Z,56.15
2023-02-16T06:26:57.042Z,65.57
2023-02-16T06:29:47.578Z,68.70
2023-02-16T06:32:29.201Z,60.10
2023-02-16T06:34:57.254Z,57.95
2023-02-16T06:37:38.110Z,57.13
2023-02-16T06:40:23.697Z,61.50
2023-02-16T06:45:40.136Z,67.47
2023-02-16T06:51:00.049Z,61.92
2023-02-16T06:53:32.173Z,61.72
2023-02-16T06:56:09.712Z,60.40
2023-02-16T06:58:41.278Z,58.17
2023-02-16T07:02:12.100Z,65.05
2023-02-16T07:07:32.279Z,55.95
2023-02-16T07:09:59.373Z,65.85
2023-02-16T07:12:29.273Z,64.53
2023-02-16T07:15:04.134Z,58.35
2023-02-16T07:17:32.900Z,56.70
2023-02-16T07:20:16.075Z,56.42
2023-02-16T07:22:46.962Z,58.05
2023-02-16T07:25:17.672Z,58.35
2023-02-16T07:27:49.128Z,63.65
2023-02-16T07:30:20.325Z,55.78
2023-02-16T07:35:49.048Z,58.58
2023-02-16T07:38:17.261Z,54.60
2023-02-16T07:40:47.397Z,59.17
2023-02-16T07:47:36.526Z,57.78
2023-02-16T07:56:32.423Z,56.58
2023-02-16T08:02:21.953Z,53.90
2023-02-16T08:04:53.001Z,56.92
2023-02-16T08:10:48.013Z,53.00
2023-02-16T08:13:46.356Z,59.85
2023-02-16T08:16:26.772Z,54.40
2023-02-16T08:18:57.384Z,47.78
2023-02-16T08:24:51.919Z,55.22
2023-02-16T08:31:31.509Z,50.25
2023-02-16T08:36:35.419Z,57.90
2023-02-16T08:39:13.240Z,53.22
2023-02-16T08:41:45.135Z,54.55
2023-02-16T08:47:32.557Z,55.40
2023-02-16T08:50:02.689Z,61.08
2023-02-16T08:52:33.321Z,52.20
2023-02-16T08:55:05.698Z,55.42
2023-02-16T09:00:37.879Z,52.95
2023-02-16T09:03:10.596Z,47.45
2023-02-16T09:05:39.558Z,56.63
2023-02-16T09:08:10.491Z,52.10
2023-02-16T09:10:40.370Z,53.25
2023-02-16T09:13:17.348Z,60.85
2023-02-16T09:15:51.610Z,46.83
2023-02-16T09:18:20.250Z,46.60
2023-02-16T09:21:09.453Z,57.90
2023-02-16T09:27:04.889Z,55.45
2023-02-16T09:29:49.097Z,52.55
2023-02-16T09:32:51.185Z,52.50
2023-02-16T09:35:36.137Z,60.00
2023-02-16T09:38:17.834Z,54.13
2023-02-16T09:40:55.303Z,53.25
2023-02-16T09:44:39.019Z,56.70
2023-02-16T09:47:24.019Z,58.35
2023-02-16T09:49:53.942Z,53.42
2023-02-16T09:52:31.387Z,52.55
2023-02-16T09:55:05.600Z,55.00
2023-02-16T09:58:22.822Z,53.00
2023-02-16T10:01:13.253Z,58.47
2023-02-16T10:04:24.900Z,59.25
2023-02-16T10:07:27.821Z,59.47
2023-02-16T10:23:27.095Z,65.75
2023-02-16T10:26:27.170Z,55.58
2023-02-16T10:28:57.972Z,66.93
2023-02-16T10:31:43.660Z,64.00
2023-02-16T10:34:39.058Z,68.30
2023-02-16T10:42:57.260Z,67.70
2023-02-16T10:49:01.585Z,65.00
2023-02-16T11:03:10.911Z,70.90
2023-02-16T11:08:51.926Z,65.28
2023-02-16T11:18:04.059Z,73.25
2023-02-16T11:21:17.277Z,74.30
2023-02-16T11:33:55.831Z,76.83
2023-02-16T11:42:47.352Z,77.07
2023-02-16T11:48:27.156Z,73.78
2023-02-16T11:51:08.121Z,73.68
2023-02-16T11:53:43.797Z,74.70
2023-02-16T11:56:35.307Z,74.25
2023-02-16T11:59:20.913Z,72.95
2023-02-16T12:02:06.738Z,75.97
2023-02-16T12:04:59.659Z,71.47
2023-02-16T12:08:07.635Z,80.25
2023-02-16T12:11:05.025Z,69.85
2023-02-16T12:14:16.898Z,71.60
2023-02-16T12:16:49.524Z,76.05
2023-02-16T12:19:19.574Z,72.03
2023-02-16T12:22:06.567Z,77.43
2023-02-16T12:24:53.547Z,73.38
2023-02-16T12:27:32.043Z,77.95
2023-02-16T12:30:15.874Z,77.55
2023-02-16T12:33:16.924Z,58.55
2023-02-16T12:36:20.337Z,74.25
2023-02-16T12:39:07.587Z,70.00
2023-02-16T12:42:06.402Z,76.55
2023-02-16T12:44:44.692Z,74.32
2023-02-16T12:47:26.154Z,72.75
2023-02-16T12:49:56.764Z,72.50
2023-02-16T12:52:44.118Z,68.00
2023-02-16T12:55:38.697Z,78.05
2023-02-16T12:58:15.374Z,76.72
2023-02-16T13:01:20.991Z,74.72
2023-02-16T13:04:15.763Z,75.35
2023-02-16T13:07:17.945Z,76.88
2023-02-16T13:10:24.968Z,67.95
2023-02-16T13:12:58.315Z,75.20
2023-02-16T13:15:43.652Z,72.35
2023-02-16T13:18:31.208Z,59.22
2023-02-16T13:21:11.424Z,73.68
2023-02-16T13:24:08.383Z,65.75
2023-02-16T13:27:06.717Z,63.28
2023-02-16T13:29:49.415Z,66.63
2023-02-16T13:32:41.017Z,63.47
2023-02-16T13:35:40.773Z,66.70
2023-02-16T13:38:38.006Z,66.50
2023-02-16T13:41:50.093Z,65.18
2023-02-16T13:44:24.236Z,69.75
2023-02-16T13:46:56.366Z,64.10
2023-02-16T13:49:40.556Z,64.38
2023-02-16T13:52:15.307Z,56.67
2023-02-16T13:54:45.927Z,50.03
2023-02-16T13:57:18.384Z,52.90
2023-02-16T13:59:59.313Z,49.97
2023-02-16T14:03:16.780Z,57.47
2023-02-16T14:05:54.827Z,37.30
2023-02-16T14:08:25.616Z,47.55
2023-02-16T14:11:08.710Z,30.02
2023-02-16T14:13:38.671Z,53.90
2023-02-16T14:16:33.202Z,47.05
2023-02-16T14:19:16.956Z,51.80
2023-02-16T14:21:49.124Z,48.08
2023-02-16T14:24:33.345Z,46.35
2023-02-16T14:27:06.332Z,48.13
2023-02-16T14:29:59.554Z,50.92
2023-02-16T14:32:38.577Z,45.03
2023-02-16T14:35:19.381Z,51.05
2023-02-16T14:38:05.812Z,56.15
2023-02-16T14:40:35.807Z,49.78
2023-02-16T14:43:31.112Z,54.88
2023-02-16T14:46:17.166Z,48.63
2023-02-16T14:49:28.542Z,50.97
2023-02-16T14:52:39.226Z,43.35
2023-02-16T14:55:43.182Z,48.83
2023-02-16T14:58:25.361Z,46.50
2023-02-16T15:01:11.202Z,44.97
2023-02-16T15:03:54.486Z,44.13
2023-02-16T15:06:44.471Z,42.25
2023-02-16T15:09:25.336Z,46.03
2023-02-16T15:12:22.846Z,37.13
2023-02-16T15:14:56.682Z,38.10
2023-02-16T15:17:40.692Z,40.05
2023-02-16T15:20:35.496Z,39.30
2023-02-16T15:23:16.086Z,36.28
2023-02-16T15:25:53.540Z,40.20
2023-02-16T15:28:25.994Z,31.40
2023-02-16T15:31:03.283Z,34.55
2023-02-16T15:33:42.795Z,30.83
2023-02-16T15:36:19.023Z,37.22
2023-02-16T15:39:00.914Z,37.70
2023-02-16T15:41:38.737Z,33.13
2023-02-16T15:44:36.594Z,34.78
2023-02-16T15:47:09.794Z,38.53
2023-02-16T15:49:39.004Z,31.70
2023-02-16T15:52:23.274Z,29.02
2023-02-16T15:54:53.298Z,30.33
2023-02-16T15:57:39.110Z,37.33
2023-02-16T16:00:30.027Z,35.85
2023-02-16T16:03:02.054Z,34.10
2023-02-16T16:05:36.856Z,34.67
2023-02-16T16:08:05.453Z,33.05
2023-02-16T16:10:37.289Z,29.83
2023-02-16T16:13:14.084Z,28.17
2023-02-16T16:15:49.395Z,35.60
2023-02-16T16:18:43.594Z,30.27
2023-02-16T16:21:35.289Z,29.30
2023-02-16T16:24:12.059Z,30.05
2023-02-16T16:27:02.850Z,29.67
2023-02-16T16:29:31.886Z,29.08
2023-02-16T16:32:00.241Z,30.52
2023-02-16T16:34:39.566Z,34.00
2023-02-16T16:37:37.846Z,28.13
2023-02-16T16:40:20.167Z,27.55
2023-02-16T16:43:21.745Z,31.50
2023-02-16T16:46:29.433Z,33.25
2023-02-16T16:49:24.421Z,32.15
2023-02-16T16:52:05.000Z,31.30
2023-02-16T17:31:20.011Z,42.67
2023-02-16T17:33:55.256Z,48.08
2023-02-16T17:36:30.361Z,45.90
2023-02-16T17:38:58.335Z,52.67
2023-02-16T17:41:30.065Z,50.58
2023-02-16T17:47:14.704Z,43.00
2023-02-16T17:49:49.263Z,42.88
2023-02-16T17:52:17.838Z,38.83
2023-02-16T17:54:47.190Z,38.97
2023-02-16T17:57:35.955Z,54.35
2023-02-16T18:06:40.419Z,39.10
2023-02-16T18:09:16.000Z,50.75
2023-02-16T18:11:44.825Z,45.67
2023-02-16T18:14:16.517Z,48.40
2023-02-16T18:16:47.257Z,51.92
2023-02-16T18:19:15.242Z,53.50
2023-02-16T18:21:48.693Z,54.70
2023-02-16T18:26:50.008Z,54.15
2023-02-16T18:29:20.739Z,55.65
2023-02-16T18:32:16.260Z,51.58
2023-02-16T18:34:58.188Z,50.50
2023-02-16T18:37:26.339Z,43.30
2023-02-16T18:41:01.134Z,52.13
2023-02-16T18:43:54.266Z,53.67
2023-02-16T18:46:22.544Z,53.35
2023-02-16T18:48:50.429Z,59.35
2023-02-16T18:51:17.779Z,51.90
2023-02-16T18:53:55.208Z,54.97
2023-02-16T19:32:05.399Z,44.63
2023-02-16T19:34:37.197Z,34.92
2023-02-16T19:37:05.577Z,47.22
2023-02-16T19:39:32.738Z,42.40
2023-02-16T19:42:00.998Z,50.67
2023-02-16T19:44:28.582Z,44.63
2023-02-16T20:02:45.961Z,44.92
2023-02-16T20:30:44.502Z,38.08
2023-02-16T20:52:11.430Z,33.92
2023-02-16T20:54:46.763Z,30.20
2023-02-16T20:57:26.640Z,32.63
2023-02-16T21:02:57.726Z,34.17
2023-02-16T21:41:29.572Z,34.95
2023-02-16T21:44:21.850Z,34.05
2023-02-16T21:46:54.081Z,37.88
2023-02-16T21:49:21.768Z,37.25
2023-02-16T21:51:50.330Z,36.63
2023-02-16T22:00:13.859Z,38.15
